Terminal Aerodrome Forecast
Issued by NWS

Current Version | Previous Version | Text Only | Print | Product List | Glossary Off
Versions: 1 2 3 4 5 6 7 8 9 10 11 12 13

761
FTUS41 KILN 221500 AAA
TAFLUK
TAF AMD
KLUK 221500Z 2215/2312 05010KT P6SM SKC
     FM230000 07005KT P6SM SCT250=

USA.gov is the U.S. government's official web portal to all federal, state and local government web resources and services.